Time;durP1;ratioP1;P1;durP2;ratioP2;P2;SDS_P1;SDS_P2;PMS_P1;PMS_P2;Temp;Humidity;BMP_temperature;BMP_pressure;BME280_temperature;BME280_humidity;BME280_pressure;Samples;Min_cycle;Max_cycle;Signal;HPM_P1;HPM_P2
2022/08/26 00:00:35;;;;;;;;;;;20.10;99.90;;;18.97;100.00;95420.13;10354431;28;2342;-76
2022/08/26 00:05:38;;;;;;;;;;;19.90;99.90;;;18.91;100.00;95411.38;10350158;28;3033;-77
2022/08/26 00:10:41;;;;;;;;;;;19.80;99.90;;;18.83;100.00;95413.06;10360762;28;3021;-78
2022/08/26 00:15:45;;;;;;;;;;;19.80;99.90;;;18.92;100.00;95409.44;10356526;28;3006;-76
2022/08/26 00:20:48;;;;;;;;;;;19.80;99.90;;;18.78;100.00;95413.25;10353024;28;2363;-77
2022/08/26 00:25:51;;;;;;;;;;;19.80;99.90;;;18.78;100.00;95415.97;10352859;28;3028;-77
2022/08/26 00:30:55;;;;;;;;;;;19.70;99.90;;;18.86;100.00;95414.31;10352376;28;3125;-77
2022/08/26 00:35:58;;;;;;;;;;;19.70;99.90;;;18.85;100.00;95424.41;10353203;28;3063;-76
2022/08/26 00:41:02;;;;;;;;;;;19.70;99.90;;;18.85;100.00;95418.97;10354740;28;2992;-75
2022/08/26 00:46:05;;;;;;;;;;;19.70;99.90;;;18.75;100.00;95405.75;10351164;28;3117;-75
2022/08/26 00:51:08;;;;;;;;;;;19.70;99.90;;;18.65;100.00;95411.59;10350081;28;2393;-75
2022/08/26 00:56:11;;;;;;;;;;;19.60;99.90;;;18.59;100.00;95418.38;10355533;28;3046;-75
2022/08/26 01:01:14;;;;;;;;;;;19.40;99.90;;;18.50;100.00;95418.41;10350553;28;3049;-76
2022/08/26 01:06:17;;;;;;;;;;;19.40;99.90;;;18.45;100.00;95417.81;10349075;28;3052;-76
2022/08/26 01:11:20;;;;;;;;;;;19.40;99.90;;;18.37;100.00;95417.56;10366572;28;3056;-78
2022/08/26 01:16:24;;;;;;;;;;;19.40;99.90;;;18.33;100.00;95410.41;10352612;28;3121;-77
2022/08/26 01:21:27;;;;;;;;;;;19.30;99.90;;;18.36;100.00;95415.16;10347591;28;3113;-79
2022/08/26 01:26:31;;;;;;;;;;;19.30;99.90;;;18.32;100.00;95417.78;10362224;28;3001;-76
2022/08/26 01:31:34;;;;;;;;;;;19.30;99.90;;;18.25;100.00;95420.19;10347977;28;2275;-77
2022/08/26 01:36:38;;;;;;;;;;;19.20;99.90;;;18.23;100.00;95419.75;10351857;28;2984;-77
2022/08/26 01:41:41;;;;;;;;;;;19.20;99.90;;;18.32;100.00;95431.38;10346554;28;3110;-77
2022/08/26 01:46:47;;;;;;;;;;;19.10;99.90;;;18.37;100.00;95423.00;10348307;28;3106;-77
2022/08/26 01:51:52;;;;;;;;;;;19.20;99.90;;;18.39;100.00;95413.72;10355636;28;3067;-77
2022/08/26 01:56:55;;;;;;;;;;;19.20;99.90;;;18.52;100.00;95418.09;10356612;28;2498;-77
2022/08/26 02:01:58;;;;;;;;;;;19.30;99.90;;;18.58;100.00;95414.06;10361362;28;3100;-78
2022/08/26 02:07:01;;;;;;;;;;;19.30;99.90;;;18.52;100.00;95423.53;10374567;28;3139;-76
2022/08/26 02:12:05;;;;;;;;;;;19.30;99.90;;;18.53;100.00;95423.22;10350883;28;3202;-76
2022/08/26 02:17:11;;;;;;;;;;;19.40;99.90;;;18.47;100.00;95419.09;10363042;28;2368;-76
2022/08/26 02:22:14;;;;;;;;;;;19.40;99.90;;;18.26;100.00;95413.66;10357466;28;2966;-76
2022/08/26 02:27:18;;;;;;;;;;;19.30;99.90;;;18.15;100.00;95417.88;10358331;28;2338;-76
2022/08/26 02:32:21;;;;;;;;;;;19.00;99.90;;;18.14;100.00;95408.13;10357613;28;3041;-76
2022/08/26 02:37:24;;;;;;;;;;;19.00;99.90;;;18.04;100.00;95416.66;10359983;28;3033;-75
2022/08/26 02:42:27;;;;;;;;;;;18.90;99.90;;;18.22;100.00;95415.44;10354377;28;3150;-76
2022/08/26 02:47:30;;;;;;;;;;;19.00;99.90;;;18.29;100.00;95421.13;10354160;28;3120;-75
2022/08/26 02:52:34;;;;;;;;;;;19.00;99.90;;;18.35;100.00;95414.38;10353782;28;3062;-76
2022/08/26 02:57:38;;;;;;;;;;;19.20;99.90;;;18.29;100.00;95412.19;10356332;28;3044;-75
2022/08/26 03:02:41;;;;;;;;;;;19.10;99.90;;;18.18;100.00;95400.88;10360627;28;3089;-75
2022/08/26 03:07:44;;;;;;;;;;;19.00;99.90;;;18.07;100.00;95405.16;10357561;28;3044;-76
2022/08/26 03:12:47;;;;;;;;;;;19.00;99.90;;;18.13;100.00;95403.78;10361913;28;3010;-76
2022/08/26 03:17:53;;;;;;;;;;;19.00;99.90;;;18.09;100.00;95395.53;10354454;28;3182;-76
2022/08/26 03:22:58;;;;;;;;;;;19.00;99.90;;;18.02;100.00;95395.25;10355067;28;3131;-76
2022/08/26 03:28:01;;;;;;;;;;;18.90;99.90;;;17.92;100.00;95394.81;10355182;28;3006;-77
2022/08/26 03:33:04;;;;;;;;;;;18.90;99.90;;;17.94;100.00;95406.16;10359919;28;3049;-76
2022/08/26 03:38:08;;;;;;;;;;;18.80;99.90;;;17.92;100.00;95405.69;10356823;28;3068;-77
2022/08/26 03:43:14;;;;;;;;;;;18.80;99.90;;;17.96;100.00;95401.22;10352314;28;2267;-76
2022/08/26 03:48:17;;;;;;;;;;;18.80;99.90;;;17.99;100.00;95406.78;10353567;28;3113;-77
2022/08/26 03:53:20;;;;;;;;;;;18.80;99.90;;;17.99;100.00;95395.09;10353076;28;3063;-75
2022/08/26 03:58:24;;;;;;;;;;;;;;;17.97;100.00;95392.72;10349102;28;3025;-75
2022/08/26 04:08:49;;;;;;;;;;;;;;;17.96;100.00;95393.06;10354741;28;3105;-75
2022/08/26 04:13:53;;;;;;;;;;;;;;;17.97;100.00;95391.91;10352652;28;3061;-76
2022/08/26 04:18:56;;;;;;;;;;;;;;;18.00;100.00;95388.53;10356294;28;2346;-76
2022/08/26 04:23:59;;;;;;;;;;;;;;;18.00;100.00;95400.19;10344039;28;3191;-77
2022/08/26 04:29:05;;;;;;;;;;;;;;;18.00;100.00;95396.69;10351867;28;3092;-75
2022/08/26 04:34:09;;;;;;;;;;;;;;;18.09;100.00;95383.84;10348612;28;3034;-76
2022/08/26 04:39:15;;;;;;;;;;;;;;;18.15;100.00;95390.69;10345525;28;3069;-77
2022/08/26 04:44:21;;;;;;;;;;;;;;;18.32;100.00;95390.56;10347031;28;2326;-77
2022/08/26 04:49:26;;;;;;;;;;;;;;;18.51;100.00;95400.16;10348927;28;3057;-75
2022/08/26 04:54:30;;;;;;;;;;;;;;;18.67;100.00;95398.47;10344794;28;3204;-77
2022/08/26 04:59:34;;;;;;;;;;;;;;;19.05;100.00;95387.34;10346188;28;3032;-78
2022/08/26 05:04:42;;;;;;;;;;;;;;;18.93;100.00;95400.13;10345619;28;2994;-72
2022/08/26 05:09:47;;;;;;;;;;;;;;;18.87;100.00;95403.06;10343431;28;2311;-74
2022/08/26 05:14:52;;;;;;;;;;;;;;;18.92;100.00;95410.25;10349628;28;3408;-72
2022/08/26 05:19:55;;;;;;;;;;;;;;;18.95;100.00;95425.09;10349145;28;2322;-71
2022/08/26 05:25:00;;;;;;;;;;;;;;;18.96;100.00;95416.63;10346064;28;2259;-73
2022/08/26 05:30:05;;;;;;;;;;;19.80;99.90;;;19.13;100.00;95416.41;10355881;28;3061;-73
2022/08/26 05:35:08;;;;;;;;;;;19.80;99.90;;;19.23;100.00;95417.16;10353974;28;2422;-72
2022/08/26 05:40:11;;;;;;;;;;;20.00;99.90;;;19.29;100.00;95419.31;10355673;28;3036;-70
2022/08/26 05:45:14;;;;;;;;;;;20.00;99.90;;;19.34;100.00;95416.38;10357858;28;3069;-73
2022/08/26 05:50:30;;;;;;;;;;;20.00;99.90;;;19.34;100.00;95423.72;10357552;28;3039;-73
2022/08/26 05:55:33;;;;;;;;;;;20.10;99.90;;;19.69;100.00;95424.94;10353670;28;3009;-73
2022/08/26 06:00:37;;;;;;;;;;;20.10;99.90;;;19.84;100.00;95423.47;10357156;28;3056;-70
2022/08/26 06:05:39;;;;;;;;;;;20.50;99.90;;;20.09;100.00;95431.66;10354612;28;2290;-69
2022/08/26 06:10:43;;;;;;;;;;;20.70;99.90;;;19.94;100.00;95436.66;10352291;28;2988;-70
2022/08/26 06:15:47;;;;;;;;;;;20.80;99.90;;;20.27;100.00;95426.75;10359739;28;3115;-71
2022/08/26 06:20:53;;;;;;;;;;;20.90;99.90;;;20.45;100.00;95426.16;10354808;28;3187;-72
2022/08/26 06:26:00;;;;;;;;;;;21.10;99.90;;;20.33;100.00;95431.63;10350517;28;3163;-71
2022/08/26 06:31:04;;;;;;;;;;;21.10;99.90;;;20.62;100.00;95430.56;10355437;28;3039;-71
2022/08/26 06:36:07;;;;;;;;;;;21.30;99.90;;;20.57;100.00;95428.09;10362121;28;3009;-71
2022/08/26 06:41:21;;;;;;;;;;;21.30;99.90;;;20.61;100.00;95423.50;10352010;28;3060;-71
2022/08/26 06:46:24;;;;;;;;;;;21.30;99.90;;;20.30;100.00;95428.81;10349297;28;3027;-72
2022/08/26 06:51:27;;;;;;;;;;;21.30;99.90;;;20.86;100.00;95428.88;10353003;28;3131;-71
2022/08/26 06:56:31;;;;;;;;;;;21.40;99.90;;;20.61;100.00;95430.91;10347290;28;3016;-72
2022/08/26 07:01:34;;;;;;;;;;;21.50;99.90;;;21.01;100.00;95437.16;10350621;28;2984;-73
2022/08/26 07:06:38;;;;;;;;;;;21.60;99.90;;;20.79;100.00;95434.94;10360246;28;3106;-71
2022/08/26 07:11:41;;;;;;;;;;;21.60;99.90;;;21.45;100.00;95434.44;10346076;28;3002;-73
2022/08/26 07:16:46;;;;;;;;;;;21.90;99.90;;;21.93;98.10;95442.66;10354177;28;2200;-72
2022/08/26 07:21:49;;;;;;;;;;;22.40;99.90;;;22.18;91.77;95441.31;10351957;28;3062;-71
2022/08/26 07:26:53;;;;;;;;;;;22.70;99.90;;;22.62;89.27;95438.38;10356555;28;3025;-71
2022/08/26 07:31:56;;;;;;;;;;;23.00;99.90;;;22.31;88.61;95442.00;10356231;28;2998;-73
2022/08/26 07:36:59;;;;;;;;;;;23.00;99.90;;;22.70;86.90;95447.56;10357830;28;2959;-74
2022/08/26 07:42:02;;;;;;;;;;;23.20;99.90;;;22.93;86.87;95441.03;10347312;28;3140;-74
2022/08/26 07:47:10;;;;;;;;;;;23.40;99.90;;;23.04;85.50;95452.22;10342782;28;2992;-73
2022/08/26 07:52:27;;;;;;;;;;;23.60;99.90;;;23.59;82.54;95449.31;10352397;28;2279;-73
2022/08/26 07:57:30;;;;;;;;;;;23.90;99.90;;;24.52;75.58;95435.19;10351845;28;2570;-74
2022/08/26 08:02:34;;;;;;;;;;;24.40;99.90;;;24.37;76.15;95449.88;10352063;28;3021;-75
2022/08/26 08:07:37;;;;;;;;;;;24.70;99.90;;;24.36;76.82;95442.78;10353885;28;2244;-74
2022/08/26 08:12:47;;;;;;;;;;;24.70;99.90;;;24.58;76.81;95441.16;10354913;28;2891;-74
2022/08/26 08:17:52;;;;;;;;;;;25.00;99.90;;;24.69;77.67;95437.38;10358261;28;3081;-79
2022/08/26 08:22:59;;;;;;;;;;;25.10;99.90;;;24.53;78.83;95437.56;10349878;28;3041;-77
2022/08/26 08:28:02;;;;;;;;;;;25.10;99.90;;;24.44;77.89;95441.75;10356500;28;3351;-78
2022/08/26 08:33:05;;;;;;;;;;;25.20;99.90;;;24.97;75.72;95438.91;10347870;28;3117;-78
2022/08/26 08:38:09;;;;;;;;;;;25.40;99.90;;;24.26;79.21;95445.00;10357971;28;3048;-80
2022/08/26 08:43:12;;;;;;;;;;;25.30;99.90;;;24.10;81.46;95444.34;10351638;28;2942;-79
2022/08/26 08:48:15;;;;;;;;;;;24.90;99.90;;;24.89;76.77;95440.78;10352257;28;3000;-77
2022/08/26 08:53:23;;;;;;;;;;;25.30;99.90;;;25.60;71.56;95438.06;10342943;28;2990;-77
2022/08/26 08:58:27;;;;;;;;;;;25.70;99.90;;;25.43;72.25;95431.19;10351328;28;2982;-74
2022/08/26 09:03:32;;;;;;;;;;;26.00;99.90;;;26.08;68.26;95429.84;10347164;28;3123;-75
2022/08/26 09:08:35;;;;;;;;;;;26.20;99.90;;;26.55;63.85;95429.03;10344777;28;3113;-76
2022/08/26 09:13:38;;;;;;;;;;;26.60;99.90;;;25.71;68.10;95433.47;10339056;28;3033;-76
2022/08/26 09:18:44;;;;;;;;;;;26.50;99.90;;;25.48;68.95;95428.13;10338947;28;2578;-76
2022/08/26 09:23:49;;;;;;;;;;;26.20;99.90;;;25.14;68.69;95434.84;10339031;28;2966;-75
2022/08/26 09:28:55;;;;;;;;;;;26.00;99.90;;;23.73;75.58;95435.91;10343802;28;2303;-76
2022/08/26 09:33:58;;;;;;;;;;;25.40;99.90;;;23.41;78.80;95433.34;10338714;28;2298;-75
2022/08/26 09:39:13;;;;;;;;;;;24.80;99.90;;;24.10;77.75;95429.81;10351885;28;3661;-76
2022/08/26 09:44:16;;;;;;;;;;;24.90;99.90;;;24.02;76.85;95431.66;10342819;28;3041;-76
2022/08/26 09:49:20;;;;;;;;;;;24.70;99.90;;;24.43;75.21;95421.72;10346329;28;3041;-76
2022/08/26 09:54:23;;;;;;;;;;;25.00;99.90;;;24.28;77.82;95408.91;10346527;28;3042;-76
2022/08/26 09:59:32;;;;;;;;;;;25.10;99.90;;;24.20;76.15;95413.50;10345233;28;3055;-77
2022/08/26 10:04:36;;;;;;;;;;;25.10;99.90;;;24.18;75.98;95404.84;10340822;28;2297;-75
2022/08/26 10:09:40;;;;;;;;;;;25.20;99.90;;;24.18;76.63;95393.88;10345202;28;3045;-77
2022/08/26 10:14:44;;;;;;;;;;;25.10;99.90;;;24.43;75.37;95379.69;10348392;28;3125;-75
2022/08/26 10:19:47;;;;;;;;;;;25.30;99.90;;;24.86;73.87;95385.75;10346883;28;3045;-76
2022/08/26 10:24:59;;;;;;;;;;;25.40;99.90;;;24.80;72.92;95377.03;10354853;28;3004;-76
2022/08/26 10:30:04;;;;;;;;;;;25.60;99.90;;;24.64;73.09;95370.97;10347174;28;3141;-76
2022/08/26 10:35:08;;;;;;;;;;;25.40;99.90;;;24.59;72.79;95369.31;10346396;28;3053;-75
2022/08/26 10:40:11;;;;;;;;;;;25.30;99.90;;;24.47;73.04;95361.31;10351222;28;3041;-75
2022/08/26 10:45:14;;;;;;;;;;;25.30;99.90;;;24.73;73.06;95355.75;10347353;28;3073;-75
2022/08/26 10:50:17;;;;;;;;;;;25.40;99.90;;;24.43;71.74;95354.97;10353377;28;3094;-76
2022/08/26 10:55:20;;;;;;;;;;;25.40;99.90;;;24.48;72.70;95349.16;10346303;28;3018;-76
2022/08/26 11:05:46;;;;;;;;;;;25.40;99.90;;;24.37;74.83;95334.53;10443096;22;3068;-74
2022/08/26 11:10:49;;;;;;;;;;;25.30;99.90;;;24.41;74.03;95332.59;10396809;28;1977;-75
2022/08/26 11:15:53;;;;;;;;;;;25.40;99.90;;;24.56;71.91;95331.63;10398868;28;1917;-76
2022/08/26 11:20:57;;;;;;;;;;;25.40;99.90;;;24.64;70.01;95316.00;10395459;28;1956;-75
2022/08/26 11:26:00;;;;;;;;;;;25.50;99.90;;;25.08;72.73;95324.38;10389231;28;1944;-70
2022/08/26 11:31:03;;;;;;;;;;;25.70;99.90;;;24.80;72.53;95320.09;10395806;28;2071;-70
2022/08/26 11:36:06;;;;;;;;;;;25.80;99.90;;;25.01;68.45;95310.53;10394937;28;1778;-70
2022/08/26 11:41:14;;;;;;;;;;;25.70;99.90;;;25.19;67.05;95311.50;10395502;28;1867;-69
2022/08/26 11:46:19;;;;;;;;;;;26.00;99.90;;;25.45;64.54;95301.50;10394394;28;1898;-69
2022/08/26 11:51:22;;;;;;;;;;;26.30;99.90;;;25.47;63.13;95304.69;10391526;28;1918;-69
2022/08/26 11:56:25;;;;;;;;;;;26.40;99.90;;;25.85;62.49;95287.69;10393936;28;1933;-70
2022/08/26 12:01:30;;;;;;;;;;;26.60;99.90;;;26.27;59.74;95294.59;10392978;28;1979;-69
2022/08/26 12:06:34;;;;;;;;;;;27.00;99.90;;;26.42;61.68;95295.50;10404863;28;1960;-70
2022/08/26 12:11:46;;;;;;;;;;;27.40;99.90;;;27.11;57.50;95278.78;10390821;28;1971;-70
2022/08/26 12:16:52;;;;;;;;;;;27.60;99.90;;;27.62;57.55;95274.09;10388708;28;1925;-69
2022/08/26 12:21:55;;;;;;;;;;;28.20;99.90;;;27.79;54.13;95259.47;10389314;28;1965;-69
2022/08/26 12:26:58;;;;;;;;;;;28.40;99.90;;;28.25;52.51;95253.84;10389353;28;1952;-70
2022/08/26 12:32:02;;;;;;;;;;;28.90;99.90;;;28.34;52.20;95250.69;10388347;28;1915;-68
2022/08/26 12:37:06;;;;;;;;;;;29.20;99.90;;;27.43;52.58;95251.22;10390383;28;1842;-71
2022/08/26 12:42:10;;;;;;;;;;;28.90;99.90;;;27.56;51.55;95245.28;10390905;28;1954;-70
2022/08/26 12:47:13;;;;;;;;;;;28.40;99.90;;;28.12;50.39;95238.91;10389924;28;1917;-69
2022/08/26 12:52:28;;;;;;;;;;;28.60;99.90;;;28.10;49.42;95229.41;10388157;28;1953;-69
2022/08/26 13:02:38;;;;;;;;;;;29.20;99.90;;;29.18;45.40;95211.09;10387615;28;2024;-69
2022/08/26 13:07:41;;;;;;;;;;;29.70;99.90;;;29.48;44.20;95200.16;10392338;28;1982;-69
2022/08/26 13:12:45;;;;;;;;;;;30.00;99.90;;;29.17;44.42;95206.75;10405497;28;1981;-69
2022/08/26 13:17:48;;;;;;;;;;;30.10;99.90;;;29.48;42.73;95200.16;10390338;28;1879;-68
2022/08/26 13:22:52;;;;;;;;;;;30.10;99.90;;;28.71;42.68;95196.78;10393833;28;1966;-68
2022/08/26 13:28:00;;;;;;;;;;;30.00;99.90;;;28.28;43.68;95183.16;10395866;28;2000;-68
2022/08/26 13:33:04;;;;;;;;;;;29.40;99.90;;;28.67;44.54;95179.41;10393769;28;1922;-69
2022/08/26 13:38:13;;;;;;;;;;;29.40;99.90;;;28.65;44.54;95196.41;10388667;28;1916;-73
2022/08/26 13:43:35;;;;;;;;;;;29.50;99.90;;;28.29;45.09;95184.72;10392535;28;1969;-72
2022/08/26 13:48:39;;;;;;;;;;;29.20;99.90;;;29.01;43.28;95187.88;10398259;28;1917;-73
2022/08/26 13:53:46;;;;;;;;;;;29.40;99.90;;;28.76;44.03;95183.31;10404423;28;1910;-73
2022/08/26 13:58:49;;;;;;;;;;;29.60;99.90;;;28.50;44.24;95183.84;10398879;28;1823;-72
2022/08/26 14:03:52;;;;;;;;;;;29.40;99.90;;;27.85;44.36;95175.03;10395761;28;1843;-72
2022/08/26 14:08:55;;;;;;;;;;;28.90;99.90;;;28.11;43.92;95170.97;10417672;28;1962;-74
2022/08/26 14:13:58;;;;;;;;;;;28.80;99.90;;;27.76;44.80;95166.41;10396417;28;1975;-72
2022/08/26 14:19:01;;;;;;;;;;;28.80;99.90;;;27.31;46.00;95174.34;10399194;28;1870;-71
2022/08/26 14:24:08;;;;;;;;;;;28.40;99.90;;;27.30;46.37;95171.97;10399376;28;1950;-71
2022/08/26 14:29:11;;;;;;;;;;;28.30;99.90;;;27.67;45.03;95163.22;10398338;28;2540;-72
2022/08/26 14:34:18;;;;;;;;;;;28.30;99.90;;;27.61;44.25;95164.81;10404185;28;1993;-73
2022/08/26 14:39:21;;;;;;;;;;;28.50;99.90;;;27.70;44.42;95156.94;10395085;28;1875;-72
2022/08/26 14:44:24;;;;;;;;;;;28.60;99.90;;;28.02;43.81;95165.13;10400917;28;1897;-71
2022/08/26 14:49:27;;;;;;;;;;;28.70;99.90;;;27.26;44.70;95166.47;10397469;28;1946;-71
2022/08/26 14:54:29;;;;;;;;;;;28.30;99.90;;;27.37;44.99;95170.00;10397904;28;1977;-71
2022/08/26 14:59:32;;;;;;;;;;;28.20;99.90;;;27.22;45.28;95154.63;10394051;28;1952;-70
2022/08/26 15:04:35;;;;;;;;;;;28.00;99.90;;;27.31;44.68;95149.50;10396577;28;1925;-69
2022/08/26 15:09:38;;;;;;;;;;;28.10;99.90;;;27.20;46.83;95144.00;10400779;28;1937;-72
2022/08/26 15:14:41;;;;;;;;;;;28.10;99.90;;;27.33;47.70;95144.38;10401438;28;2230;-70
2022/08/26 15:19:44;;;;;;;;;;;28.00;99.90;;;27.29;48.56;95143.56;10396975;28;1926;-71
2022/08/26 15:24:47;;;;;;;;;;;28.10;99.90;;;27.45;48.42;95130.16;10397118;28;1909;-69
2022/08/26 15:29:55;;;;;;;;;;;28.20;99.90;;;27.28;47.80;95136.47;10404972;28;1969;-70
2022/08/26 15:34:58;;;;;;;;;;;28.20;99.90;;;27.22;47.87;95135.31;10398861;28;1918;-70
2022/08/26 15:40:04;;;;;;;;;;;28.10;99.90;;;27.24;48.66;95124.69;10404725;28;1929;-69
2022/08/26 15:45:07;;;;;;;;;;;28.00;99.90;;;26.87;56.15;95119.56;10402834;28;1976;-70
2022/08/26 15:50:10;;;;;;;;;;;27.90;99.90;;;26.60;59.22;95119.94;10396006;28;2310;-70
2022/08/26 15:55:13;;;;;;;;;;;27.80;99.90;;;27.08;58.41;95114.06;10402173;28;2175;-70
2022/08/26 16:00:16;;;;;;;;;;;27.70;99.90;;;27.22;58.92;95121.50;10402990;28;1847;-70
2022/08/26 16:05:19;;;;;;;;;;;27.90;99.90;;;27.19;59.04;95117.59;10396366;28;1918;-70
2022/08/26 16:10:22;;;;;;;;;;;27.90;99.90;;;27.00;59.61;95103.41;10401523;28;1938;-70
2022/08/26 16:15:25;;;;;;;;;;;27.90;99.90;;;26.76;61.45;95116.78;10395261;28;1964;-70
2022/08/26 16:20:27;;;;;;;;;;;27.60;99.90;;;26.65;61.36;95107.72;10398279;28;1930;-70
2022/08/26 16:25:30;;;;;;;;;;;27.60;99.90;;;26.42;62.37;95112.84;10397618;28;1782;-71
2022/08/26 16:30:34;;;;;;;;;;;27.40;99.90;;;26.00;63.88;95119.78;10398277;28;1849;-70
2022/08/26 16:35:37;;;;;;;;;;;27.10;99.90;;;25.73;65.50;95122.84;10398068;28;2088;-70
2022/08/26 16:40:40;;;;;;;;;;;26.80;99.90;;;25.65;66.12;95123.97;10394462;28;1966;-70
2022/08/26 16:45:43;;;;;;;;;;;26.60;99.90;;;25.62;66.37;95127.47;10397084;28;1925;-70
2022/08/26 16:50:46;;;;;;;;;;;26.60;99.90;;;25.42;67.80;95124.22;10402924;28;1889;-71
2022/08/26 16:55:49;;;;;;;;;;;26.40;99.90;;;25.38;68.18;95117.91;10398945;28;1973;-70
2022/08/26 17:00:53;;;;;;;;;;;26.30;99.90;;;25.19;68.79;95123.69;10392894;28;2042;-72
2022/08/26 17:05:57;;;;;;;;;;;26.20;99.90;;;25.11;69.45;95131.09;10394584;28;1972;-71
2022/08/26 17:11:01;;;;;;;;;;;26.10;99.90;;;25.00;69.95;95130.19;10393743;28;2090;-70
2022/08/26 17:16:07;;;;;;;;;;;26.00;99.90;;;24.88;72.11;95133.28;10398692;28;1985;-70
2022/08/26 17:21:10;;;;;;;;;;;25.90;99.90;;;24.70;73.03;95133.91;10397780;28;1961;-69
2022/08/26 17:26:14;;;;;;;;;;;25.70;99.90;;;24.54;73.42;95141.59;10394840;28;1947;-71
2022/08/26 17:31:17;;;;;;;;;;;25.60;99.90;;;24.37;74.98;95139.50;10388236;28;2064;-70
2022/08/26 17:36:20;;;;;;;;;;;25.40;99.90;;;24.19;76.17;95134.56;10396133;28;2123;-69
2022/08/26 17:41:23;;;;;;;;;;;25.30;99.90;;;24.06;77.83;95138.75;10390067;28;1876;-68
2022/08/26 17:46:26;;;;;;;;;;;25.10;99.90;;;23.91;79.03;95150.72;10401065;28;1894;-68
2022/08/26 17:51:29;;;;;;;;;;;25.00;99.90;;;23.86;80.29;95168.31;10393936;28;1919;-70
2022/08/26 17:56:32;;;;;;;;;;;24.80;99.90;;;23.76;81.56;95181.91;10400186;28;1988;-73
2022/08/26 18:01:35;;;;;;;;;;;24.80;99.90;;;23.69;82.77;95183.38;10391770;28;1811;-69
2022/08/26 18:06:38;;;;;;;;;;;24.70;99.90;;;23.54;84.19;95178.84;10397543;28;2030;-70
2022/08/26 18:11:40;;;;;;;;;;;24.60;99.90;;;23.43;85.42;95175.16;10393837;28;1933;-69
2022/08/26 18:16:43;;;;;;;;;;;24.50;99.90;;;23.31;87.17;95180.84;10398367;28;1922;-69
2022/08/26 18:21:46;;;;;;;;;;;24.30;99.90;;;23.20;88.21;95173.25;10391090;28;1913;-71
2022/08/26 18:26:49;;;;;;;;;;;24.20;99.90;;;23.22;88.29;95174.84;10391540;28;1910;-69
2022/08/26 18:31:52;;;;;;;;;;;24.10;99.90;;;23.16;89.05;95179.88;10392376;28;1855;-68
2022/08/26 18:36:55;;;;;;;;;;;24.10;99.90;;;23.07;89.48;95195.75;10401943;28;1954;-69
2022/08/26 18:41:58;;;;;;;;;;;24.10;99.90;;;22.94;90.00;95206.13;10401277;28;1953;-69
2022/08/26 18:47:01;;;;;;;;;;;23.90;99.90;;;22.94;90.06;95217.09;10402123;28;1843;-69
2022/08/26 18:52:04;;;;;;;;;;;23.90;99.90;;;22.89;90.61;95226.41;10401499;28;2065;-70
2022/08/26 18:57:07;;;;;;;;;;;23.80;99.90;;;22.26;87.14;95253.38;10397747;28;2036;-72
2022/08/26 19:02:09;;;;;;;;;;;23.60;99.90;;;21.69;90.96;95257.59;10398490;28;1945;-71
2022/08/26 19:07:13;;;;;;;;;;;22.80;99.90;;;21.33;77.13;95303.28;10399021;28;1913;-75
2022/08/26 19:12:16;;;;;;;;;;;22.50;99.90;;;20.44;83.86;95290.78;10399423;28;1945;-72
2022/08/26 19:17:18;;;;;;;;;;;21.70;99.90;;;18.50;100.00;95314.19;10403902;28;1935;-72
2022/08/26 19:22:24;;;;;;;;;;;20.20;99.90;;;16.90;100.00;95410.06;10400140;28;1990;-76
2022/08/26 19:27:28;;;;;;;;;;;17.70;99.90;;;16.28;100.00;95363.47;10400623;28;1886;-71
2022/08/26 19:32:31;;;;;;;;;;;17.30;99.90;;;16.50;100.00;95357.88;10401805;28;1878;-72
2022/08/26 19:37:37;;;;;;;;;;;16.70;99.90;;;16.33;100.00;95341.63;10400744;28;1918;-70
2022/08/26 19:42:40;;;;;;;;;;;16.90;99.90;;;16.55;100.00;95321.66;10398487;28;1874;-71
2022/08/26 19:47:42;;;;;;;;;;;17.00;99.90;;;16.47;100.00;95296.13;10401147;28;1894;-69
2022/08/26 19:52:46;;;;;;;;;;;17.10;99.90;;;16.48;100.00;95267.91;10396241;28;1895;-69
2022/08/26 19:57:54;;;;;;;;;;;16.60;99.90;;;16.47;100.00;95261.66;10397145;28;2006;-70
2022/08/26 20:02:57;;;;;;;;;;;17.20;99.90;;;16.46;100.00;95243.78;10390983;28;1874;-68
2022/08/26 20:08:01;;;;;;;;;;;17.20;99.90;;;16.39;100.00;95240.78;10398060;28;1909;-69
2022/08/26 20:13:05;;;;;;;;;;;17.20;99.90;;;16.48;100.00;95252.41;10399044;28;1972;-70
2022/08/26 20:23:28;;;;;;;;;;;17.50;99.90;;;17.08;100.00;95258.75;10398218;28;1925;-70
2022/08/26 20:28:31;;;;;;;;;;;17.80;99.90;;;17.09;100.00;95259.53;10395867;28;2016;-70
2022/08/26 20:33:34;;;;;;;;;;;17.80;99.90;;;16.96;100.00;95267.59;10397538;28;1991;-73
2022/08/26 20:38:49;;;;;;;;;;;17.80;99.90;;;16.86;100.00;95273.41;10390621;28;1929;-69
2022/08/26 20:43:51;;;;;;;;;;;17.70;99.90;;;16.80;100.00;95284.75;10393771;28;1962;-75
2022/08/26 20:48:54;;;;;;;;;;;17.70;99.90;;;16.79;100.00;95285.84;10397275;28;1843;-72
2022/08/26 20:54:01;;;;;;;;;;;17.70;99.90;;;16.92;100.00;95293.81;10398892;28;1914;-73
2022/08/26 20:59:04;;;;;;;;;;;17.80;99.90;;;17.20;100.00;95299.59;10395162;28;1906;-74
2022/08/26 21:04:07;;;;;;;;;;;17.90;99.90;;;16.88;100.00;95294.78;10397773;28;2007;-73
2022/08/26 21:09:10;;;;;;;;;;;17.90;99.90;;;16.75;100.00;95313.66;10396310;28;1981;-77
2022/08/26 21:14:13;;;;;;;;;;;17.80;99.90;;;16.49;100.00;95313.69;10398843;28;1943;-74
2022/08/26 21:19:19;;;;;;;;;;;17.50;99.90;;;16.46;100.00;95338.72;10391213;28;2029;-72
2022/08/26 21:24:21;;;;;;;;;;;17.50;99.90;;;16.55;100.00;95349.59;10391454;28;1976;-73
2022/08/26 21:29:24;;;;;;;;;;;17.50;99.90;;;16.45;100.00;95356.13;10392271;28;1987;-75
2022/08/26 21:34:27;;;;;;;;;;;17.40;99.90;;;16.42;100.00;95372.28;10394095;28;1975;-74
2022/08/26 21:39:30;;;;;;;;;;;17.40;99.90;;;16.37;100.00;95380.56;10397713;28;1907;-76
2022/08/26 21:44:33;;;;;;;;;;;17.40;99.90;;;16.40;100.00;95366.34;10388754;28;2023;-72
2022/08/26 21:49:36;;;;;;;;;;;17.40;99.90;;;16.46;100.00;95378.63;10409110;28;1905;-75
2022/08/26 21:54:39;;;;;;;;;;;17.30;99.90;;;16.36;100.00;95387.13;10397125;28;1985;-73
2022/08/26 21:59:51;;;;;;;;;;;17.40;99.90;;;16.59;100.00;95387.72;10391278;28;2009;-69
2022/08/26 22:04:55;;;;;;;;;;;17.40;99.90;;;17.22;100.00;95383.47;10390566;28;1957;-71
2022/08/26 22:09:58;;;;;;;;;;;17.80;99.90;;;17.65;100.00;95375.13;10398820;28;1905;-74
2022/08/26 22:15:00;;;;;;;;;;;18.10;99.90;;;17.92;100.00;95375.78;10403378;28;1959;-73
2022/08/26 22:20:03;;;;;;;;;;;18.50;99.90;;;17.59;100.00;95389.22;10407543;28;1907;-71
2022/08/26 22:25:08;;;;;;;;;;;18.50;99.90;;;17.49;100.00;95383.00;10402791;28;1889;-71
2022/08/26 22:30:14;;;;;;;;;;;18.40;99.90;;;17.50;100.00;95389.28;10407280;28;1902;-73
2022/08/26 22:35:17;;;;;;;;;;;18.40;99.90;;;17.55;100.00;95376.28;10409936;28;1975;-76
2022/08/26 22:40:31;;;;;;;;;;;18.30;99.90;;;17.47;100.00;95371.69;10411410;28;1983;-77
2022/08/26 22:45:34;;;;;;;;;;;18.40;99.90;;;17.44;100.00;95369.63;10410592;28;1862;-71
2022/08/26 22:50:37;;;;;;;;;;;18.30;99.90;;;17.44;100.00;95366.13;10404937;28;1973;-77
2022/08/26 22:55:42;;;;;;;;;;;18.40;99.90;;;17.27;100.00;95348.75;10413093;28;2068;-75
2022/08/26 23:00:45;;;;;;;;;;;18.20;99.90;;;17.21;100.00;95360.94;10415165;28;2001;-72
2022/08/26 23:05:54;;;;;;;;;;;18.20;99.90;;;17.10;100.00;95381.41;10412740;28;1852;-74
2022/08/26 23:10:57;;;;;;;;;;;18.10;99.90;;;17.21;100.00;95401.69;10409214;28;1801;-76
2022/08/26 23:16:00;;;;;;;;;;;18.10;99.90;;;17.29;100.00;95400.03;10413030;28;2075;-75
2022/08/26 23:21:03;;;;;;;;;;;18.20;99.90;;;17.32;100.00;95390.47;10413239;28;1968;-75
2022/08/26 23:26:06;;;;;;;;;;;18.20;99.90;;;17.34;100.00;95391.72;10413759;28;1929;-75
2022/08/26 23:31:09;;;;;;;;;;;18.20;99.90;;;17.34;100.00;95382.78;10400140;28;1855;-76
2022/08/26 23:36:12;;;;;;;;;;;18.20;99.90;;;17.33;100.00;95397.50;10404662;28;2185;-70
2022/08/26 23:56:04;;;;;;;;;;;18.20;99.90;;;17.34;100.00;95385.50;10514305;27;2258;-72
